Time;durP1;ratioP1;P1;durP2;ratioP2;P2;SDS_P1;SDS_P2;PMS_P1;PMS_P2;Temp;Humidity;BMP_temperature;BMP_pressure;BME280_temperature;BME280_humidity;BME280_pressure;Samples;Min_cycle;Max_cycle;Signal;HPM_P1;HPM_P2
2022/03/10 00:02:24;;;;;;;17.77;11.43;;;-1.70;99.90;;;;;;5097444;28;20195;-77
2022/03/10 00:04:51;;;;;;;17.03;11.90;;;-1.80;99.90;;;;;;5079671;28;20671;-77
2022/03/10 00:07:17;;;;;;;17.23;11.90;;;-2.00;99.90;;;;;;5097616;28;20683;-77
2022/03/10 00:09:44;;;;;;;18.70;12.67;;;-2.10;99.90;;;;;;5084707;28;20255;-77
2022/03/10 00:12:11;;;;;;;19.90;12.70;;;-2.20;99.90;;;;;;5098129;28;20196;-77
2022/03/10 00:14:38;;;;;;;18.70;12.50;;;-2.30;99.90;;;;;;5098610;28;20196;-77
2022/03/10 00:17:06;;;;;;;18.73;12.80;;;-2.40;99.90;;;;;;5099442;28;20199;-77
2022/03/10 00:19:34;;;;;;;21.90;13.13;;;-2.40;99.90;;;;;;5100613;28;20200;-77
2022/03/10 00:22:01;;;;;;;19.57;12.37;;;-2.50;99.90;;;;;;5100628;28;20226;-77
2022/03/10 00:24:27;;;;;;;18.30;11.47;;;-2.50;99.90;;;;;;5100969;28;20196;-77
2022/03/10 00:26:54;;;;;;;17.30;12.07;;;-2.40;99.90;;;;;;5100913;28;20216;-77
2022/03/10 00:29:22;;;;;;;20.07;11.97;;;-2.30;99.90;;;;;;5100376;28;20654;-77
2022/03/10 00:31:49;;;;;;;19.27;11.13;;;-2.30;99.90;;;;;;5082720;28;20192;-77
2022/03/10 00:34:17;;;;;;;17.67;11.13;;;-2.20;99.90;;;;;;5101200;28;20230;-77
2022/03/10 00:36:43;;;;;;;18.17;11.77;;;-2.40;99.90;;;;;;5101326;28;20611;-77
2022/03/10 00:39:10;;;;;;;20.87;11.60;;;-2.50;99.90;;;;;;5099552;28;21009;-77
2022/03/10 00:41:37;;;;;;;21.57;12.43;;;-2.50;99.90;;;;;;5099674;28;20643;-77
2022/03/10 00:44:04;;;;;;;18.47;12.07;;;-2.70;99.90;;;;;;5100169;28;20198;-77
2022/03/10 00:46:31;;;;;;;22.33;12.50;;;-2.70;99.90;;;;;;5099041;28;20813;-76
2022/03/10 00:48:57;;;;;;;19.27;12.50;;;-2.70;99.90;;;;;;5098948;28;20196;-76
2022/03/10 00:51:25;;;;;;;24.00;13.37;;;-2.80;99.90;;;;;;5099401;28;20246;-77
2022/03/10 00:53:52;;;;;;;21.10;13.00;;;-2.70;99.90;;;;;;5099130;28;20196;-77
2022/03/10 00:56:19;;;;;;;18.03;11.60;;;-2.70;99.90;;;;;;5097917;28;20192;-76
2022/03/10 00:58:45;;;;;;;20.30;12.10;;;-2.60;99.90;;;;;;5099219;28;20280;-76
2022/03/10 01:01:12;;;;;;;22.33;12.63;;;-2.50;99.90;;;;;;5099987;28;20613;-76
2022/03/10 01:03:39;;;;;;;19.90;12.17;;;-2.50;99.90;;;;;;5099817;28;20237;-77
2022/03/10 01:06:05;;;;;;;17.70;12.13;;;-2.50;99.90;;;;;;5099803;28;20602;-77
2022/03/10 01:08:33;;;;;;;25.50;12.50;;;-2.60;99.90;;;;;;5099228;28;20254;-77
2022/03/10 01:11:00;;;;;;;21.00;12.47;;;-2.50;99.90;;;;;;5099308;28;20205;-77
2022/03/10 01:13:28;;;;;;;20.10;12.63;;;-2.50;99.90;;;;;;5098851;28;20198;-77
2022/03/10 01:15:56;;;;;;;21.73;12.53;;;-2.70;99.90;;;;;;5098681;28;20234;-77
2022/03/10 01:18:23;;;;;;;19.27;11.83;;;-2.80;99.90;;;;;;5098814;28;20208;-77
2022/03/10 01:20:49;;;;;;;19.63;11.83;;;-2.90;99.90;;;;;;5098663;28;20204;-77
2022/03/10 01:23:16;;;;;;;21.70;12.30;;;-2.90;99.90;;;;;;5099119;28;20533;-77
2022/03/10 01:25:44;;;;;;;21.83;11.93;;;-2.80;99.90;;;;;;5098824;28;20227;-77
2022/03/10 01:28:11;;;;;;;21.60;13.07;;;-2.90;99.90;;;;;;5098087;28;20277;-77
2022/03/10 01:30:38;;;;;;;19.97;13.13;;;-3.00;99.90;;;;;;5101225;28;20200;-77
2022/03/10 01:33:04;;;;;;;18.07;12.40;;;-3.10;99.90;;;;;;5102953;28;20192;-77
2022/03/10 01:35:31;;;;;;;26.13;14.10;;;-3.10;99.90;;;;;;5103047;28;20196;-77
2022/03/10 01:37:57;;;;;;;21.53;13.47;;;-3.20;99.90;;;;;;5101522;28;20227;-76
2022/03/10 01:40:24;;;;;;;27.57;13.67;;;-3.20;99.90;;;;;;5100989;28;20250;-78
2022/03/10 01:42:52;;;;;;;23.20;13.90;;;-3.30;99.90;;;;;;5101458;28;20244;-77
2022/03/10 01:45:19;;;;;;;18.90;12.87;;;-3.30;99.90;;;;;;5100310;28;20200;-77
2022/03/10 01:47:46;;;;;;;23.73;13.47;;;-3.30;99.90;;;;;;5100121;28;20698;-77
2022/03/10 01:50:16;;;;;;;23.93;13.63;;;-3.30;99.90;;;;;;5100066;28;20333;-77
2022/03/10 01:52:44;;;;;;;21.93;13.93;;;-3.40;99.90;;;;;;5099776;28;20196;-77
2022/03/10 01:55:11;;;;;;;20.87;13.47;;;-3.40;99.90;;;;;;5099689;28;20196;-77
2022/03/10 01:57:38;;;;;;;20.73;13.27;;;-3.40;99.90;;;;;;5100172;28;20196;-77
2022/03/10 02:00:08;;;;;;;21.77;13.37;;;-3.40;99.90;;;;;;5100381;28;20196;-77
2022/03/10 02:02:35;;;;;;;18.77;12.43;;;-3.20;99.90;;;;;;5099548;28;20207;-78
2022/03/10 02:05:02;;;;;;;23.60;13.47;;;-3.10;99.90;;;;;;5099280;28;20532;-77
2022/03/10 02:10:18;;;;;;;21.37;13.77;;;-3.10;99.90;;;;;;5098648;28;20258;-77
2022/03/10 02:12:46;;;;;;;24.03;13.20;;;-3.00;99.90;;;;;;5098146;28;20196;-77
2022/03/10 02:18:00;;;;;;;20.33;13.73;;;-3.10;99.90;;;;;;5097736;28;20671;-77
2022/03/10 02:20:27;;;;;;;22.80;14.13;;;-3.20;99.90;;;;;;5097549;28;20200;-77
2022/03/10 02:22:55;;;;;;;19.67;13.20;;;-3.30;99.90;;;;;;5097510;28;20208;-77
2022/03/10 02:25:23;;;;;;;16.63;12.00;;;-3.50;99.90;;;;;;5100978;28;20533;-76
2022/03/10 02:27:51;;;;;;;21.73;13.70;;;-3.60;99.90;;;;;;5101053;28;20276;-77
2022/03/10 02:30:18;;;;;;;24.57;13.30;;;-3.60;99.90;;;;;;5101506;28;20203;-76
2022/03/10 02:32:45;;;;;;;23.87;13.83;;;-3.70;99.90;;;;;;5100797;28;20250;-76
2022/03/10 02:35:12;;;;;;;20.33;12.90;;;-3.70;99.90;;;;;;5101805;28;20623;-76
2022/03/10 02:37:39;;;;;;;21.03;13.10;;;-3.60;99.90;;;;;;5102944;28;20200;-76
2022/03/10 02:40:10;;;;;;;20.07;12.87;;;-3.60;99.90;;;;;;5104078;28;20224;-76
2022/03/10 02:42:36;;;;;;;20.03;13.27;;;-3.60;99.90;;;;;;5102003;28;20288;-76
2022/03/10 02:45:04;;;;;;;23.93;14.13;;;-3.70;99.90;;;;;;5103184;28;20202;-75
2022/03/10 02:47:31;;;;;;;22.67;13.57;;;-3.70;99.90;;;;;;5103739;28;20752;-76
2022/03/10 02:49:58;;;;;;;23.00;13.73;;;-3.70;99.90;;;;;;5104598;28;20196;-76
2022/03/10 02:52:25;;;;;;;24.70;13.60;;;-3.70;99.90;;;;;;5102009;28;20200;-77
2022/03/10 02:54:52;;;;;;;24.20;13.20;;;-3.70;99.90;;;;;;5100721;28;20741;-77
2022/03/10 02:57:21;;;;;;;22.90;13.33;;;-3.70;99.90;;;;;;5099979;28;20200;-77
2022/03/10 02:59:47;;;;;;;21.97;13.47;;;-3.70;99.90;;;;;;5100294;28;20250;-76
2022/03/10 03:02:14;;;;;;;19.90;12.73;;;-3.60;99.90;;;;;;5101323;28;20249;-76
2022/03/10 03:04:41;;;;;;;21.50;13.13;;;-3.50;99.90;;;;;;5100184;28;20254;-77
2022/03/10 03:07:08;;;;;;;22.93;13.40;;;-3.60;99.90;;;;;;5100383;28;20218;-77
2022/03/10 03:09:35;;;;;;;24.77;13.27;;;-3.70;99.90;;;;;;5100415;28;20223;-76
2022/03/10 03:12:02;;;;;;;23.00;13.57;;;-3.80;99.90;;;;;;5099718;28;20201;-76
2022/03/10 03:14:30;;;;;;;21.33;13.10;;;-3.70;99.90;;;;;;5099386;28;20207;-77
2022/03/10 03:16:57;;;;;;;20.57;13.83;;;-3.80;99.90;;;;;;5102493;28;20204;-77
2022/03/10 03:19:24;;;;;;;24.30;13.93;;;-3.80;99.90;;;;;;5102807;28;20234;-76
2022/03/10 03:21:52;;;;;;;22.33;13.57;;;-3.70;99.90;;;;;;5102571;28;20219;-76
2022/03/10 03:24:19;;;;;;;21.07;13.13;;;-3.80;99.90;;;;;;5102851;28;20200;-76
2022/03/10 03:26:45;;;;;;;19.93;12.53;;;-3.90;99.90;;;;;;5103743;28;20223;-76
2022/03/10 03:29:13;;;;;;;25.13;12.83;;;-4.00;99.90;;;;;;5103999;28;20231;-76
2022/03/10 03:31:41;;;;;;;26.87;15.97;;;-4.00;99.90;;;;;;5103159;28;20196;-77
2022/03/10 03:34:10;;;;;;;27.90;17.10;;;-3.80;99.90;;;;;;5100396;28;20207;-76
2022/03/10 03:36:38;;;;;;;27.80;15.50;;;-3.60;99.90;;;;;;5099522;28;20298;-76
2022/03/10 03:39:05;;;;;;;25.77;16.03;;;-3.60;99.90;;;;;;5099271;28;20806;-76
2022/03/10 03:41:32;;;;;;;28.93;16.50;;;-3.50;99.90;;;;;;5099154;28;20249;-77
2022/03/10 03:43:59;;;;;;;28.73;15.93;;;-3.60;99.90;;;;;;5099017;28;20536;-76
2022/03/10 03:46:27;;;;;;;24.40;14.63;;;-3.50;99.90;;;;;;5099218;28;20195;-77
2022/03/10 03:48:55;;;;;;;26.13;15.17;;;-3.70;99.90;;;;;;5097903;28;20751;-77
2022/03/10 03:51:22;;;;;;;21.63;13.40;;;-3.90;99.90;;;;;;5098489;28;20284;-77
2022/03/10 03:53:49;;;;;;;23.07;14.00;;;-4.10;99.90;;;;;;5099248;28;20253;-77
2022/03/10 03:56:16;;;;;;;24.40;14.37;;;-4.10;99.90;;;;;;5098248;28;20247;-76
2022/03/10 03:58:44;;;;;;;22.87;14.60;;;-4.20;99.90;;;;;;5097354;28;20196;-77
2022/03/10 04:01:11;;;;;;;23.27;13.70;;;-4.30;99.90;;;;;;5097548;28;20208;-76
2022/03/10 04:03:38;;;;;;;21.63;13.33;;;-4.30;99.90;;;;;;5097435;28;20723;-76
2022/03/10 04:06:06;;;;;;;23.97;13.30;;;-4.40;99.90;;;;;;5097765;28;20203;-76
2022/03/10 04:08:33;;;;;;;20.73;12.50;;;-4.20;99.90;;;;;;5097502;28;20751;-76
2022/03/10 04:11:00;;;;;;;20.50;12.97;;;-4.30;99.90;;;;;;5097024;28;20237;-77
2022/03/10 04:13:28;;;;;;;22.87;13.33;;;-4.20;99.90;;;;;;5097633;28;20195;-76
2022/03/10 04:15:55;;;;;;;22.40;13.93;;;-4.00;99.90;;;;;;5096871;28;20195;-76
2022/03/10 04:18:21;;;;;;;20.40;13.07;;;-4.20;99.90;;;;;;5096581;28;20195;-76
2022/03/10 04:20:49;;;;;;;22.30;13.63;;;-4.30;99.90;;;;;;5096752;28;20562;-77
2022/03/10 04:23:17;;;;;;;24.20;13.17;;;-4.40;99.90;;;;;;5099313;28;20231;-76
2022/03/10 04:25:44;;;;;;;21.57;13.83;;;-4.40;99.90;;;;;;5100710;28;20203;-77
2022/03/10 04:28:14;;;;;;;20.33;13.77;;;-4.40;99.90;;;;;;5081889;28;20230;-77
2022/03/10 04:30:41;;;;;;;23.00;13.70;;;-4.50;99.90;;;;;;5098779;28;20198;-77
2022/03/10 04:33:08;;;;;;;22.27;13.70;;;-4.50;99.90;;;;;;5097814;28;20198;-76
2022/03/10 04:35:37;;;;;;;21.20;13.30;;;-4.50;99.90;;;;;;5097549;28;20195;-76
2022/03/10 04:38:04;;;;;;;24.63;14.13;;;-4.70;99.90;;;;;;5097555;28;20228;-76
2022/03/10 04:40:32;;;;;;;23.57;13.83;;;-4.70;99.90;;;;;;5097542;28;20705;-77
2022/03/10 04:42:59;;;;;;;21.73;13.37;;;-4.70;99.90;;;;;;5097166;28;20282;-77
2022/03/10 04:45:26;;;;;;;23.60;13.77;;;-4.80;99.90;;;;;;5097326;28;20595;-75
2022/03/10 04:47:53;;;;;;;26.13;14.40;;;-4.70;99.90;;;;;;5096713;28;20230;-76
2022/03/10 04:50:20;;;;;;;25.70;15.60;;;-4.70;99.90;;;;;;5097133;28;20198;-77
2022/03/10 04:52:47;;;;;;;25.80;15.90;;;-4.80;99.90;;;;;;5095975;28;20561;-76
2022/03/10 04:55:14;;;;;;;26.83;14.93;;;-4.80;99.90;;;;;;5096266;28;20658;-77
2022/03/10 04:57:43;;;;;;;25.27;15.27;;;-4.80;99.90;;;;;;5095932;28;20210;-76
2022/03/10 05:00:11;;;;;;;25.30;15.83;;;-4.80;99.90;;;;;;5096229;28;20203;-76
2022/03/10 05:02:40;;;;;;;24.30;14.63;;;-4.70;99.90;;;;;;5095981;28;20207;-76
2022/03/10 05:05:08;;;;;;;24.57;14.80;;;-4.60;99.90;;;;;;5098158;28;20251;-77
2022/03/10 05:07:35;;;;;;;26.93;15.37;;;-4.70;99.90;;;;;;5099325;28;20207;-77
2022/03/10 05:10:02;;;;;;;24.73;14.77;;;-4.50;99.90;;;;;;5079726;28;20657;-77
2022/03/10 05:12:29;;;;;;;28.83;15.80;;;-4.60;99.90;;;;;;5097549;28;20197;-77
2022/03/10 05:14:57;;;;;;;24.13;14.60;;;-4.70;99.90;;;;;;5097871;28;20247;-77
2022/03/10 05:17:24;;;;;;;29.97;15.43;;;-4.70;99.90;;;;;;5098402;28;20202;-77
2022/03/10 05:19:52;;;;;;;27.87;16.60;;;-4.60;99.90;;;;;;5097253;28;20203;-76
2022/03/10 05:22:20;;;;;;;36.30;16.97;;;-4.60;99.90;;;;;;5097945;28;20199;-77
2022/03/10 05:24:46;;;;;;;27.83;16.27;;;-4.70;99.90;;;;;;5079324;28;20192;-77
2022/03/10 05:27:13;;;;;;;29.93;16.07;;;-4.70;99.90;;;;;;5097781;28;20261;-77
2022/03/10 05:29:40;;;;;;;32.87;17.60;;;-4.80;99.90;;;;;;5097966;28;20231;-77
2022/03/10 05:32:10;;;;;;;31.20;18.30;;;-4.70;99.90;;;;;;5098180;28;20214;-77
2022/03/10 05:34:37;;;;;;;32.43;18.97;;;-4.70;99.90;;;;;;5098507;28;20209;-77
2022/03/10 05:37:04;;;;;;;31.20;16.67;;;-4.70;99.90;;;;;;5098150;28;20215;-77
2022/03/10 05:39:31;;;;;;;27.67;15.87;;;-4.80;99.90;;;;;;5097682;28;20712;-77
2022/03/10 05:41:57;;;;;;;25.30;16.43;;;-4.80;99.90;;;;;;5097836;28;20196;-77
2022/03/10 05:44:24;;;;;;;23.83;14.40;;;-4.80;99.90;;;;;;5097280;28;20194;-77
2022/03/10 05:46:51;;;;;;;27.20;15.23;;;-4.80;99.90;;;;;;5098051;28;20670;-78
2022/03/10 05:49:19;;;;;;;28.70;17.20;;;-4.80;99.90;;;;;;5097515;28;20269;-77
2022/03/10 05:51:46;;;;;;;29.20;18.10;;;-4.90;99.90;;;;;;5099662;28;20281;-77
2022/03/10 05:54:13;;;;;;;36.83;20.13;;;-4.90;99.90;;;;;;5100692;28;20197;-77
2022/03/10 05:56:39;;;;;;;32.43;21.17;;;-4.70;99.90;;;;;;5100480;28;20244;-77
2022/03/10 05:59:06;;;;;;;35.63;17.93;;;-4.70;99.90;;;;;;5100217;28;20203;-77
2022/03/10 06:01:33;;;;;;;33.30;17.67;;;-4.60;99.90;;;;;;5101058;28;20194;-78
2022/03/10 06:03:59;;;;;;;31.40;17.60;;;-4.50;99.90;;;;;;5099655;28;20658;-77
2022/03/10 06:06:28;;;;;;;28.83;18.03;;;-4.30;99.90;;;;;;5099844;28;20662;-78
2022/03/10 06:08:54;;;;;;;34.47;17.97;;;-4.10;99.90;;;;;;5097909;28;20219;-77
2022/03/10 06:11:21;;;;;;;33.23;19.00;;;-4.10;99.90;;;;;;5098331;28;20224;-77
2022/03/10 06:13:48;;;;;;;34.27;19.37;;;-3.90;99.90;;;;;;5098368;28;20257;-78
2022/03/10 06:16:14;;;;;;;30.40;18.47;;;-3.90;99.90;;;;;;5098697;28;20203;-77
2022/03/10 06:18:41;;;;;;;30.30;18.57;;;-3.80;99.90;;;;;;5098031;28;20605;-78
2022/03/10 06:21:08;;;;;;;36.33;19.37;;;-3.70;99.90;;;;;;5098161;28;20199;-78
2022/03/10 06:23:36;;;;;;;36.00;19.53;;;-3.70;99.90;;;;;;5098332;28;20237;-78
2022/03/10 06:26:03;;;;;;;36.27;18.80;;;-3.60;99.90;;;;;;5098661;28;20208;-77
2022/03/10 06:28:30;;;;;;;33.63;19.57;;;-3.50;99.90;;;;;;5097784;28;20226;-78
2022/03/10 06:30:57;;;;;;;31.43;19.13;;;-3.30;99.90;;;;;;5097796;28;20192;-77
2022/03/10 06:33:25;;;;;;;28.93;17.90;;;-3.30;99.90;;;;;;5098128;28;20257;-76
2022/03/10 06:35:52;;;;;;;28.20;17.80;;;-3.20;99.90;;;;;;5098032;28;20275;-77
2022/03/10 06:38:20;;;;;;;31.27;17.37;;;-3.00;99.90;;;;;;5097210;28;20540;-77
2022/03/10 06:40:48;;;;;;;26.53;17.60;;;-2.90;99.90;;;;;;5101424;28;20233;-77
2022/03/10 06:43:14;;;;;;;24.87;17.37;;;-2.70;99.90;;;;;;5097547;28;20196;-77
2022/03/10 06:45:41;;;;;;;24.87;17.30;;;-2.60;99.90;;;;;;5096818;28;20597;-78
2022/03/10 06:48:08;;;;;;;27.00;15.83;;;-2.50;99.90;;;;;;5079148;28;20200;-77
2022/03/10 06:50:34;;;;;;;26.87;16.77;;;-2.50;99.90;;;;;;5097223;28;20544;-78
2022/03/10 06:53:01;;;;;;;29.57;16.40;;;-2.40;99.90;;;;;;5097353;28;20200;-77
2022/03/10 06:55:28;;;;;;;29.67;16.23;;;-2.20;99.90;;;;;;5097459;28;20196;-78
2022/03/10 06:57:56;;;;;;;26.37;15.87;;;-2.10;99.90;;;;;;5097475;28;20249;-77
2022/03/10 07:00:23;;;;;;;28.13;17.13;;;-1.90;99.90;;;;;;5096531;28;20196;-77
2022/03/10 07:02:52;;;;;;;32.40;16.07;;;-1.80;99.90;;;;;;5096708;28;20196;-77
2022/03/10 07:05:19;;;;;;;28.07;15.70;;;-1.70;99.90;;;;;;5096846;28;20245;-78
2022/03/10 07:07:46;;;;;;;26.87;15.67;;;-1.60;99.90;;;;;;5096427;28;20204;-78
2022/03/10 07:10:13;;;;;;;27.27;16.17;;;-1.50;99.90;;;;;;5096477;28;20224;-78
2022/03/10 07:12:42;;;;;;;26.53;15.90;;;-1.30;99.90;;;;;;5097548;28;20659;-78
2022/03/10 07:15:11;;;;;;;28.07;15.47;;;-1.20;99.90;;;;;;5096816;28;20204;-78
2022/03/10 07:17:38;;;;;;;22.73;15.57;;;-1.10;99.90;;;;;;5096664;28;20192;-77
2022/03/10 07:20:07;;;;;;;23.93;15.20;;;-1.10;99.90;;;;;;5095564;28;20308;-78
2022/03/10 07:22:34;;;;;;;30.77;15.67;;;-0.90;99.90;;;;;;5095481;28;20286;-77
2022/03/10 07:25:00;;;;;;;29.87;15.57;;;-0.80;99.90;;;;;;5095842;28;20200;-77
2022/03/10 07:27:27;;;;;;;27.47;16.03;;;-0.60;99.90;;;;;;5094525;28;20200;-78
2022/03/10 07:29:53;;;;;;;25.17;15.93;;;-0.40;99.90;;;;;;5095826;28;20690;-79
2022/03/10 07:32:24;;;;;;;26.40;15.63;;;-0.20;99.90;;;;;;5096120;28;20196;-78
2022/03/10 07:34:51;;;;;;;29.63;15.97;;;0.00;99.90;;;;;;5095393;28;20198;-78
2022/03/10 07:37:18;;;;;;;30.80;15.93;;;0.20;99.90;;;;;;5094234;28;20594;-78
2022/03/10 07:39:45;;;;;;;26.37;15.70;;;0.40;99.90;;;;;;5077322;28;20595;-78
2022/03/10 07:42:12;;;;;;;22.83;14.47;;;0.60;99.90;;;;;;5083839;28;20201;-78
2022/03/10 07:44:38;;;;;;;26.47;14.40;;;0.80;99.90;;;;;;5078088;28;20223;-78
2022/03/10 07:47:07;;;;;;;25.40;13.90;;;0.90;99.90;;;;;;5077324;28;20631;-79
2022/03/10 07:49:35;;;;;;;21.43;13.23;;;1.20;99.90;;;;;;5076509;28;20224;-80
2022/03/10 07:52:03;;;;;;;23.23;14.53;;;1.40;99.90;;;;;;5081215;28;20208;-79
2022/03/10 07:54:30;;;;;;;19.07;12.83;;;1.70;99.90;;;;;;5095640;28;20249;-79
2022/03/10 07:56:56;;;;;;;22.07;14.50;;;1.90;99.90;;;;;;5088463;28;20189;-79
2022/03/10 07:59:23;;;;;;;21.10;12.83;;;2.10;99.90;;;;;;5081156;28;20633;-76
2022/03/10 08:01:50;;;;;;;22.77;12.50;;;2.40;99.90;;;;;;5075529;28;20674;-78
2022/03/10 08:04:17;;;;;;;22.80;13.20;;;2.50;99.90;;;;;;5079405;28;20202;-78
2022/03/10 08:06:44;;;;;;;18.53;12.40;;;2.80;99.90;;;;;;5084416;28;20198;-79
2022/03/10 08:09:12;;;;;;;19.83;11.80;;;3.00;99.90;;;;;;5084310;28;20274;-78
2022/03/10 08:11:39;;;;;;;20.70;12.00;;;3.20;99.90;;;;;;5083395;28;20199;-78
2022/03/10 08:14:06;;;;;;;17.23;11.90;;;3.50;99.90;;;;;;5084800;28;20206;-77
2022/03/10 08:16:33;;;;;;;17.47;11.47;;;3.70;99.90;;;;;;5085489;28;20618;-78
2022/03/10 08:18:59;;;;;;;17.03;10.97;;;3.80;99.90;;;;;;5084011;28;20204;-78
2022/03/10 08:21:26;;;;;;;18.10;10.70;;;4.10;99.90;;;;;;5081557;28;20223;-77
2022/03/10 08:23:55;;;;;;;22.33;10.10;;;4.30;99.90;;;;;;5079164;28;20213;-77
2022/03/10 08:26:22;;;;;;;17.57;10.50;;;4.60;99.90;;;;;;5076664;28;20288;-77
2022/03/10 08:28:51;;;;;;;13.47;9.70;;;4.90;99.90;;;;;;5076156;28;20630;-76
2022/03/10 08:31:18;;;;;;;13.73;9.77;;;5.20;99.90;;;;;;5076021;28;20193;-78
2022/03/10 08:33:45;;;;;;;13.90;10.03;;;5.40;95.20;;;;;;5077105;28;20656;-78
2022/03/10 08:36:13;;;;;;;12.63;9.63;;;5.50;93.40;;;;;;5076632;28;20208;-78
2022/03/10 08:38:40;;;;;;;18.23;10.63;;;5.70;92.80;;;;;;5075950;28;20287;-77
2022/03/10 08:41:08;;;;;;;16.03;10.47;;;5.80;91.70;;;;;;5076390;28;20756;-78
2022/03/10 08:43:37;;;;;;;14.77;10.20;;;6.00;92.00;;;;;;5077139;28;20250;-77
2022/03/10 08:46:05;;;;;;;17.67;10.13;;;6.10;90.80;;;;;;5076910;28;20201;-79
2022/03/10 08:48:32;;;;;;;17.87;10.00;;;6.40;87.60;;;;;;5076882;28;20197;-80
2022/03/10 08:51:00;;;;;;;13.93;10.10;;;6.40;79.80;;;;;;5076198;28;20231;-78
2022/03/10 08:53:27;;;;;;;20.77;11.20;;;6.60;82.30;;;;;;5076228;28;20294;-77
2022/03/10 08:55:54;;;;;;;15.40;10.67;;;6.80;76.20;;;;;;5076910;28;20204;-78
2022/03/10 08:58:22;;;;;;;15.63;10.97;;;7.10;75.70;;;;;;5076759;28;20193;-79
2022/03/10 09:00:48;;;;;;;14.13;10.40;;;7.40;73.90;;;;;;5076258;28;20235;-79
2022/03/10 09:03:15;;;;;;;14.87;10.43;;;7.50;64.10;;;;;;5076068;28;20205;-79
2022/03/10 09:05:42;;;;;;;14.47;9.90;;;7.60;61.20;;;;;;5076118;28;20652;-76
2022/03/10 09:08:09;;;;;;;12.83;9.90;;;7.90;59.70;;;;;;5075974;28;20201;-76
2022/03/10 09:10:36;;;;;;;14.03;10.60;;;8.20;58.80;;;;;;5075957;28;20302;-75
2022/03/10 09:13:04;;;;;;;17.30;9.80;;;8.40;56.50;;;;;;5075698;28;20201;-78
2022/03/10 09:15:32;;;;;;;13.57;9.80;;;8.70;54.70;;;;;;5076293;28;20698;-77
2022/03/10 09:17:59;;;;;;;13.83;9.80;;;9.10;53.20;;;;;;5076027;28;20274;-78
2022/03/10 09:20:25;;;;;;;12.60;9.80;;;9.40;49.50;;;;;;5075599;28;20748;-77
2022/03/10 09:22:52;;;;;;;13.30;10.20;;;9.60;48.90;;;;;;5075949;28;20619;-75
2022/03/10 09:25:19;;;;;;;12.77;9.60;;;9.80;45.60;;;;;;5074769;28;20246;-77
2022/03/10 09:27:46;;;;;;;16.07;10.40;;;10.20;45.50;;;;;;5075805;28;20628;-76
2022/03/10 09:30:13;;;;;;;12.50;10.20;;;10.40;43.40;;;;;;5075722;28;20581;-76
2022/03/10 09:32:43;;;;;;;14.33;9.97;;;10.70;42.30;;;;;;5075689;28;20205;-75
2022/03/10 09:35:12;;;;;;;12.70;9.70;;;10.80;40.40;;;;;;5075557;28;20740;-75
2022/03/10 09:37:39;;;;;;;14.17;10.03;;;11.00;37.90;;;;;;5075733;28;20197;-75
2022/03/10 09:40:08;;;;;;;13.23;10.37;;;11.10;39.20;;;;;;5075568;28;20229;-75
2022/03/10 09:42:36;;;;;;;11.17;9.00;;;11.30;37.80;;;;;;5075593;28;20197;-75
2022/03/10 09:45:07;;;;;;;11.13;9.53;;;11.50;36.70;;;;;;5075554;28;20212;-75
2022/03/10 09:47:36;;;;;;;10.73;9.43;;;11.90;35.20;;;;;;5075332;28;20343;-75
2022/03/10 09:50:06;;;;;;;14.65;9.52;;;11.80;33.20;;;;;;5074977;28;20283;-76
2022/03/10 09:52:33;;;;;;;10.85;9.40;;;12.10;32.30;;;;;;5075787;28;20262;-75
2022/03/10 09:55:00;;;;;;;13.07;9.65;;;12.40;31.00;;;;;;5075607;28;20705;-76
2022/03/10 09:57:28;;;;;;;14.27;9.50;;;12.40;30.30;;;;;;5075303;28;20250;-75
2022/03/10 09:59:57;;;;;;;12.02;10.30;;;12.50;30.40;;;;;;5075167;28;20197;-75
2022/03/10 10:02:24;;;;;;;12.95;10.02;;;12.90;30.10;;;;;;5075401;28;20204;-76
2022/03/10 10:04:51;;;;;;;14.20;9.45;;;13.10;28.70;;;;;;5075391;28;20200;-76
2022/03/10 10:07:24;;;;;;;12.20;9.88;;;13.20;28.00;;;;;;5075163;28;20205;-75
2022/03/10 10:09:54;;;;;;;10.52;9.43;;;13.40;27.10;;;;;;5074926;28;20258;-75
2022/03/10 10:12:25;;;;;;;11.35;9.88;;;13.70;27.00;;;;;;5074942;28;20201;-76
2022/03/10 10:14:52;;;;;;;13.05;9.75;;;13.80;26.50;;;;;;5074820;28;20200;-74
2022/03/10 10:17:26;;;;;;;10.57;9.45;;;14.10;25.90;;;;;;5074919;28;20201;-76
2022/03/10 10:19:55;;;;;;;12.98;9.90;;;14.40;25.20;;;;;;5074973;28;20667;-77
2022/03/10 10:22:24;;;;;;;12.70;9.88;;;14.60;23.70;;;;;;5074634;28;20197;-77
2022/03/10 10:24:52;;;;;;;12.88;9.18;;;14.80;24.00;;;;;;5074549;28;20201;-77
2022/03/10 10:27:20;;;;;;;10.07;8.82;;;14.90;23.00;;;;;;5074575;28;20204;-77
2022/03/10 10:29:48;;;;;;;13.15;9.38;;;15.20;21.60;;;;;;5074166;28;20746;-76
2022/03/10 10:32:25;;;;;;;10.45;9.48;;;15.40;22.30;;;;;;5074807;28;20257;-78
2022/03/10 10:34:59;;;;;;;14.02;9.38;;;15.40;21.60;;;;;;5074771;28;20203;-78
2022/03/10 10:37:27;;;;;;;11.32;9.25;;;15.90;21.20;;;;;;5074647;28;20743;-79
2022/03/10 10:39:56;;;;;;;11.77;9.00;;;16.00;19.90;;;;;;5073990;28;20286;-78
2022/03/10 10:42:26;;;;;;;11.18;8.88;;;16.20;19.40;;;;;;5073945;28;20197;-77
2022/03/10 10:44:53;;;;;;;10.07;9.15;;;16.60;18.80;;;;;;5074412;28;20200;-77
2022/03/10 10:47:19;;;;;;;10.73;9.40;;;17.00;18.20;;;;;;5074293;28;20204;-78
2022/03/10 10:49:56;;;;;;;9.73;8.68;;;17.20;17.40;;;;;;5074041;28;20232;-78
2022/03/10 10:52:24;;;;;;;10.00;8.93;;;17.00;17.20;;;;;;5073993;28;20546;-77
2022/03/10 10:55:06;;;;;;;10.43;9.32;;;17.30;17.10;;;;;;5074096;28;20201;-78
2022/03/10 10:57:34;;;;;;;10.85;8.80;;;17.80;16.90;;;;;;5074142;28;20204;-79
2022/03/10 11:00:11;;;;;;;10.77;8.75;;;18.00;15.50;;;;;;5073686;28;20292;-77
2022/03/10 11:02:41;;;;;;;11.35;8.60;;;18.10;15.00;;;;;;5072567;28;20200;-77
2022/03/10 11:05:09;;;;;;;11.77;8.73;;;18.20;14.60;;;;;;5074062;28;20300;-77
2022/03/10 11:07:37;;;;;;;10.73;8.73;;;18.50;14.30;;;;;;5073842;28;20201;-77
2022/03/10 11:10:07;;;;;;;10.50;9.40;;;18.30;13.70;;;;;;5073580;28;20221;-76
2022/03/10 11:12:34;;;;;;;9.90;8.90;;;18.80;14.10;;;;;;5073654;28;20193;-77
2022/03/10 11:15:02;;;;;;;10.30;9.13;;;19.40;14.00;;;;;;5073572;28;20201;-77
2022/03/10 11:17:30;;;;;;;10.25;9.25;;;19.80;13.30;;;;;;5073606;28;20201;-74
2022/03/10 11:19:57;;;;;;;10.68;9.57;;;20.50;13.20;;;;;;5073820;28;20201;-77
2022/03/10 11:22:32;;;;;;;10.70;9.60;;;20.90;12.90;;;;;;5073693;28;20215;-77
2022/03/10 11:25:14;;;;;;;11.50;9.27;;;21.30;13.00;;;;;;5073398;28;20671;-77
2022/03/10 11:27:45;;;;;;;9.80;8.77;;;21.50;11.90;;;;;;5073375;28;20197;-77
2022/03/10 11:30:12;;;;;;;9.70;8.63;;;21.00;11.90;;;;;;5073604;28;20266;-76
2022/03/10 11:32:39;;;;;;;8.93;8.02;;;21.00;11.20;;;;;;5073337;28;20571;-77
2022/03/10 11:35:07;;;;;;;9.10;8.00;;;21.40;10.90;;;;;;5073635;28;20595;-77
2022/03/10 11:37:52;;;;;;;9.13;8.07;;;21.70;10.90;;;;;;5073334;28;20196;-77
2022/03/10 11:40:36;;;;;;;11.00;7.72;;;22.30;10.10;;;;;;5072936;28;20232;-77
2022/03/10 11:43:03;;;;;;;11.90;8.40;;;21.80;9.40;;;;;;5072827;28;20200;-77
2022/03/10 11:45:32;;;;;;;9.80;8.80;;;22.50;9.50;;;;;;5073099;28;20250;-77
2022/03/10 11:48:32;;;;;;;9.52;8.57;;;22.50;9.60;;;;;;5073049;28;20233;-76
2022/03/10 11:50:58;;;;;;;8.57;7.78;;;22.90;9.40;;;;;;5073096;28;20228;-77
2022/03/10 11:53:25;;;;;;;9.80;7.78;;;23.10;8.40;;;;;;5072875;28;20250;-75
2022/03/10 11:55:54;;;;;;;11.23;8.30;;;23.00;8.30;;;;;;5073023;28;20337;-75
2022/03/10 11:58:21;;;;;;;9.32;7.82;;;22.50;8.50;;;;;;5072890;28;20284;-77
2022/03/10 12:00:52;;;;;;;9.40;7.78;;;23.20;7.40;;;;;;5073014;28;20198;-77
2022/03/10 12:03:20;;;;;;;9.45;8.52;;;23.20;7.30;;;;;;5072741;28;20624;-76
2022/03/10 12:05:53;;;;;;;10.07;9.07;;;23.10;7.50;;;;;;5072556;28;20204;-75
2022/03/10 12:08:21;;;;;;;10.32;9.27;;;23.70;8.10;;;;;;5072957;28;20228;-77
2022/03/10 12:10:48;;;;;;;10.43;9.10;;;24.30;8.10;;;;;;5072897;28;20217;-77
2022/03/10 12:13:28;;;;;;;11.10;9.48;;;24.70;7.70;;;;;;5072454;28;20304;-77
2022/03/10 12:15:56;;;;;;;10.35;8.93;;;25.10;7.10;;;;;;5073205;28;20204;-77
2022/03/10 12:18:39;;;;;;;11.40;10.30;;;24.40;7.00;;;;;;5072382;28;20565;-76
2022/03/10 12:21:18;;;;;;;10.77;9.68;;;23.90;7.30;;;;;;5072581;28;20559;-77
2022/03/10 12:23:52;;;;;;;12.90;9.95;;;24.20;7.20;;;;;;5072780;28;20234;-77
2022/03/10 12:26:26;;;;;;;11.85;9.32;;;24.40;6.80;;;;;;5080627;28;20191;-78
2022/03/10 12:28:55;;;;;;;10.57;9.52;;;25.00;6.60;;;;;;5093104;28;20192;-78
2022/03/10 12:31:24;;;;;;;10.02;9.13;;;24.90;6.60;;;;;;5093110;28;20261;-77
2022/03/10 12:33:53;;;;;;;10.88;9.65;;;25.20;5.50;;;;;;5092704;28;20245;-76
2022/03/10 12:36:28;;;;;;;10.00;9.10;;;25.50;6.10;;;;;;5092516;28;20192;-77
2022/03/10 12:38:56;;;;;;;11.00;9.32;;;26.10;5.80;;;;;;5092857;28;20253;-78
2022/03/10 12:41:27;;;;;;;12.15;9.40;;;26.30;5.10;;;;;;5093010;28;20647;-78
2022/03/10 12:43:56;;;;;;;11.13;10.13;;;25.00;5.30;;;;;;5092601;28;20284;-78